Time;durP1;ratioP1;P1;durP2;ratioP2;P2;SDS_P1;SDS_P2;PMS_P1;PMS_P2;Temp;Humidity;BMP_temperature;BMP_pressure;BME280_temperature;BME280_humidity;BME280_pressure;Samples;Min_cycle;Max_cycle;Signal;HPM_P1;HPM_P2
2023/05/26 00:00:35;;;;;;;9.35;5.25;;;12.80;99.90;;;;;;5036344;28;20036;-75
2023/05/26 00:03:04;;;;;;;10.30;5.50;;;12.90;99.90;;;;;;5033282;28;20025;-76
2023/05/26 00:05:30;;;;;;;8.35;5.55;;;12.90;99.90;;;;;;5035170;28;20057;-76
2023/05/26 00:07:56;;;;;;;9.68;6.05;;;12.90;99.90;;;;;;5041120;28;20028;-76
2023/05/26 00:10:21;;;;;;;7.18;5.15;;;12.90;99.90;;;;;;5035062;28;20116;-75
2023/05/26 00:12:47;;;;;;;6.63;4.03;;;12.90;99.90;;;;;;5032785;28;20170;-76
2023/05/26 00:15:13;;;;;;;7.07;4.00;;;12.90;99.90;;;;;;5036047;28;20048;-76
2023/05/26 00:17:38;;;;;;;5.60;3.78;;;12.80;99.90;;;;;;5034250;28;20026;-77
2023/05/26 00:20:07;;;;;;;5.55;3.67;;;12.80;99.90;;;;;;5040242;28;20060;-76
2023/05/26 00:22:34;;;;;;;4.53;3.67;;;12.70;99.90;;;;;;5034027;28;20108;-75
2023/05/26 00:25:00;;;;;;;5.03;3.50;;;12.70;99.90;;;;;;5036061;28;20032;-76
2023/05/26 00:27:26;;;;;;;2.85;2.55;;;12.70;99.90;;;;;;5038419;28;20037;-75
2023/05/26 00:29:51;;;;;;;3.05;2.28;;;12.80;99.90;;;;;;5020046;28;20037;-75
2023/05/26 00:32:17;;;;;;;3.80;3.20;;;12.60;99.90;;;;;;5035002;28;20041;-76
2023/05/26 00:34:42;;;;;;;2.45;2.25;;;12.60;99.90;;;;;;5035445;28;20029;-75
2023/05/26 00:37:08;;;;;;;2.40;2.20;;;12.50;99.90;;;;;;5033932;28;20096;-76
2023/05/26 00:39:35;;;;;;;2.00;1.88;;;12.30;99.90;;;;;;5042181;28;20026;-75
2023/05/26 00:42:01;;;;;;;3.63;2.72;;;12.30;99.90;;;;;;5036554;28;20044;-75
2023/05/26 00:44:27;;;;;;;4.03;3.00;;;12.20;99.90;;;;;;5036590;28;20025;-76
2023/05/26 00:46:52;;;;;;;4.72;3.42;;;12.10;99.90;;;;;;5033714;28;20052;-76
2023/05/26 00:49:18;;;;;;;10.88;4.65;;;12.10;99.90;;;;;;5033950;28;20569;-76
2023/05/26 00:51:45;;;;;;;8.68;4.97;;;12.10;99.90;;;;;;5039581;28;20045;-76
2023/05/26 00:54:12;;;;;;;9.93;5.00;;;12.10;99.90;;;;;;5039524;28;20033;-76
2023/05/26 00:56:38;;;;;;;5.97;4.68;;;12.10;99.90;;;;;;5038691;28;20049;-76
2023/05/26 00:59:14;;;;;;;6.93;5.28;;;12.00;99.90;;;;;;5032919;28;20030;-78
2023/05/26 01:01:40;;;;;;;8.07;5.47;;;12.10;99.90;;;;;;5035507;28;20413;-86
2023/05/26 01:04:06;;;;;;;8.77;5.13;;;12.10;99.90;;;;;;5033974;28;20025;-85
2023/05/26 01:06:31;;;;;;;7.88;4.65;;;12.10;99.90;;;;;;5038251;28;20057;-86
2023/05/26 01:08:58;;;;;;;7.97;4.93;;;12.10;99.90;;;;;;5038847;28;20025;-86
2023/05/26 01:11:31;;;;;;;7.35;5.53;;;12.20;99.90;;;;;;5036600;28;20037;-86
2023/05/26 01:14:25;;;;;;;10.63;5.90;;;12.10;99.90;;;;;;5034966;28;20029;-85
2023/05/26 01:17:01;;;;;;;13.10;6.50;;;12.10;99.90;;;;;;5028872;28;20482;-86
2023/05/26 01:20:03;;;;;;;8.82;5.97;;;12.10;99.90;;;;;;5039036;28;20052;-86
2023/05/26 01:22:34;;;;;;;10.30;6.15;;;12.10;99.90;;;;;;5032069;28;20483;-86
2023/05/26 01:25:21;;;;;;;9.25;6.03;;;12.10;99.90;;;;;;5041237;28;20176;-86
2023/05/26 01:27:47;;;;;;;8.70;5.38;;;12.10;99.90;;;;;;5033927;28;20060;-85
2023/05/26 01:30:13;;;;;;;7.97;5.97;;;12.20;99.90;;;;;;5039684;28;20253;-86
2023/05/26 01:32:46;;;;;;;7.95;5.88;;;12.20;99.90;;;;;;5038067;28;20044;-86
2023/05/26 01:35:11;;;;;;;8.00;6.00;;;12.20;99.90;;;;;;5048853;28;20033;-86
2023/05/26 01:37:37;;;;;;;8.77;5.75;;;12.10;99.90;;;;;;5041126;28;20040;-86
2023/05/26 01:40:03;;;;;;;12.85;6.18;;;12.10;99.90;;;;;;5041804;28;20040;-85
2023/05/26 01:42:33;;;;;;;12.38;5.95;;;12.10;99.90;;;;;;5037708;28;20124;-85
2023/05/26 01:45:16;;;;;;;9.30;6.03;;;12.10;99.90;;;;;;5042679;28;20021;-85
2023/05/26 01:47:45;;;;;;;10.43;5.95;;;12.00;99.90;;;;;;5040612;28;20105;-86
2023/05/26 01:50:12;;;;;;;8.73;6.15;;;12.00;99.90;;;;;;5037427;28;20045;-86
2023/05/26 01:52:42;;;;;;;8.38;5.97;;;12.00;99.90;;;;;;5041367;28;20121;-86
2023/05/26 01:55:11;;;;;;;8.45;5.60;;;12.00;99.90;;;;;;5045441;28;20486;-86
2023/05/26 01:57:38;;;;;;;9.50;6.20;;;12.00;99.90;;;;;;5047593;28;20037;-86
2023/05/26 02:00:04;;;;;;;9.45;6.13;;;12.00;99.90;;;;;;5040842;28;20037;-85
2023/05/26 02:02:29;;;;;;;9.95;5.80;;;12.00;99.90;;;;;;5038319;28;20512;-86
2023/05/26 02:04:55;;;;;;;12.10;6.63;;;11.90;99.90;;;;;;5041010;28;20025;-85
2023/05/26 02:07:21;;;;;;;8.90;5.93;;;11.90;99.90;;;;;;5040682;28;20069;-86
2023/05/26 02:09:46;;;;;;;14.02;6.43;;;12.00;99.90;;;;;;5035892;28;20056;-85
2023/05/26 02:12:13;;;;;;;9.25;6.13;;;11.90;99.90;;;;;;5041004;28;20374;-85
2023/05/26 02:14:38;;;;;;;10.68;6.35;;;11.90;99.90;;;;;;5036748;28;20029;-85
2023/05/26 02:17:05;;;;;;;9.85;5.82;;;11.80;99.90;;;;;;5041114;28;20037;-86
2023/05/26 02:19:30;;;;;;;11.48;6.25;;;11.80;99.90;;;;;;5046000;28;20044;-85
2023/05/26 02:21:56;;;;;;;10.27;6.05;;;11.70;99.90;;;;;;5034902;28;20033;-86
2023/05/26 02:24:22;;;;;;;9.48;5.90;;;11.70;99.90;;;;;;5036295;28;20037;-86
2023/05/26 02:26:47;;;;;;;9.73;5.85;;;11.70;99.90;;;;;;5034254;28;20039;-85
2023/05/26 02:29:13;;;;;;;9.43;5.93;;;11.70;99.90;;;;;;5043620;28;20037;-86
2023/05/26 02:31:39;;;;;;;9.63;5.65;;;11.60;99.90;;;;;;5042696;28;20478;-86
2023/05/26 02:34:05;;;;;;;9.27;5.88;;;11.70;99.90;;;;;;5042579;28;20026;-86
2023/05/26 02:36:32;;;;;;;10.43;5.68;;;11.70;99.90;;;;;;5046260;28;20114;-86
2023/05/26 02:38:58;;;;;;;7.95;5.22;;;11.70;99.90;;;;;;5037693;28;20036;-85
2023/05/26 02:41:25;;;;;;;8.55;5.10;;;11.60;99.90;;;;;;5038856;28;20385;-86
2023/05/26 02:43:50;;;;;;;8.38;5.95;;;11.60;99.90;;;;;;5037517;28;20010;-86
2023/05/26 02:46:16;;;;;;;8.13;5.68;;;11.60;99.90;;;;;;5039526;28;20117;-85
2023/05/26 02:48:42;;;;;;;8.80;6.10;;;11.60;99.90;;;;;;5043059;28;20033;-86
2023/05/26 02:51:07;;;;;;;8.27;4.97;;;11.60;99.90;;;;;;5037531;28;20030;-85
2023/05/26 02:53:33;;;;;;;6.53;4.93;;;11.60;99.90;;;;;;5040780;28;20063;-85
2023/05/26 02:55:58;;;;;;;5.85;4.85;;;11.60;99.90;;;;;;5037670;28;20021;-85
2023/05/26 02:58:24;;;;;;;8.95;5.35;;;11.40;99.90;;;;;;5035983;28;20873;-86
2023/05/26 03:00:50;;;;;;;6.43;5.35;;;11.40;99.90;;;;;;5037699;28;20736;-85
2023/05/26 03:03:16;;;;;;;8.93;6.18;;;11.40;99.90;;;;;;5040730;28;20037;-85
2023/05/26 03:05:42;;;;;;;9.98;6.13;;;11.40;99.90;;;;;;5039354;28;20053;-85
2023/05/26 03:08:07;;;;;;;12.55;6.72;;;11.30;99.90;;;;;;5041137;28;20084;-85
2023/05/26 03:10:33;;;;;;;7.18;5.30;;;11.10;99.90;;;;;;5040988;28;20041;-85
2023/05/26 03:12:59;;;;;;;7.35;5.47;;;10.90;99.90;;;;;;5034956;28;20041;-86
2023/05/26 03:15:33;;;;;;;8.27;5.00;;;11.00;99.90;;;;;;5038714;28;20036;-86
2023/05/26 03:17:59;;;;;;;10.05;5.80;;;11.00;99.90;;;;;;5037013;28;20479;-85
2023/05/26 03:20:24;;;;;;;8.18;5.65;;;10.80;99.90;;;;;;5036706;28;20045;-85
2023/05/26 03:22:50;;;;;;;7.50;5.25;;;10.60;99.90;;;;;;5034012;28;20385;-86
2023/05/26 03:25:18;;;;;;;7.70;4.22;;;10.30;99.90;;;;;;5035111;28;20025;-85
2023/05/26 03:27:44;;;;;;;11.18;4.68;;;10.20;99.90;;;;;;5035916;28;20037;-85
2023/05/26 03:30:10;;;;;;;6.95;4.45;;;10.20;99.90;;;;;;5039391;28;20021;-85
2023/05/26 03:32:35;;;;;;;7.53;4.85;;;9.90;99.90;;;;;;5035252;28;20048;-85
2023/05/26 03:35:02;;;;;;;8.88;5.80;;;9.80;99.90;;;;;;5035872;28;20060;-85
2023/05/26 03:37:27;;;;;;;7.10;5.05;;;9.90;99.90;;;;;;5035243;28;20025;-85
2023/05/26 03:39:53;;;;;;;10.02;5.55;;;10.00;99.90;;;;;;5040088;28;20545;-85
2023/05/26 03:42:19;;;;;;;9.68;5.40;;;9.90;99.90;;;;;;5034894;28;20152;-85
2023/05/26 03:44:44;;;;;;;7.93;5.07;;;9.80;99.90;;;;;;5040270;28;20043;-85
2023/05/26 03:47:10;;;;;;;5.00;3.78;;;9.80;99.90;;;;;;5039884;28;20037;-85
2023/05/26 03:49:35;;;;;;;9.82;5.25;;;9.50;99.90;;;;;;5039933;28;20048;-85
2023/05/26 03:52:02;;;;;;;6.75;4.60;;;9.40;99.90;;;;;;5039687;28;20604;-85
2023/05/26 03:54:27;;;;;;;7.30;5.20;;;9.40;99.90;;;;;;5040658;28;20051;-85
2023/05/26 03:56:55;;;;;;;8.45;4.95;;;9.30;99.90;;;;;;5033915;28;20038;-85
2023/05/26 03:59:21;;;;;;;7.68;4.93;;;9.50;99.90;;;;;;5035563;28;20048;-85
2023/05/26 04:01:47;;;;;;;7.88;5.07;;;9.60;99.90;;;;;;5037795;28;20036;-85
2023/05/26 04:04:13;;;;;;;9.23;4.97;;;9.80;99.90;;;;;;5021975;28;20108;-85
2023/05/26 04:06:38;;;;;;;7.88;4.97;;;9.90;99.90;;;;;;5036895;28;20053;-85
2023/05/26 04:09:05;;;;;;;7.18;5.07;;;9.80;99.90;;;;;;5039082;28;20048;-84
2023/05/26 04:11:31;;;;;;;7.88;5.43;;;10.00;99.90;;;;;;5037388;28;20028;-85
2023/05/26 04:13:56;;;;;;;8.77;5.43;;;10.00;99.90;;;;;;5038514;28;20040;-86
2023/05/26 04:16:22;;;;;;;9.30;4.70;;;10.10;99.90;;;;;;5036997;28;20449;-85
2023/05/26 04:18:48;;;;;;;9.35;5.43;;;10.30;99.90;;;;;;5032440;28;20033;-86
2023/05/26 04:21:13;;;;;;;7.82;5.72;;;10.40;99.90;;;;;;5039781;28;20037;-85
2023/05/26 04:23:39;;;;;;;8.73;5.40;;;10.40;99.90;;;;;;5031686;28;20037;-85
2023/05/26 04:26:05;;;;;;;7.30;5.47;;;10.50;99.90;;;;;;5040789;28;20037;-85
2023/05/26 04:28:31;;;;;;;10.07;4.88;;;10.60;99.90;;;;;;5033708;28;20036;-85
2023/05/26 04:30:56;;;;;;;9.50;5.30;;;10.60;99.90;;;;;;5039828;28;20049;-86
2023/05/26 04:33:22;;;;;;;9.18;6.05;;;10.80;99.90;;;;;;5036750;28;20029;-86
2023/05/26 04:35:48;;;;;;;9.45;6.22;;;10.90;99.90;;;;;;5035939;28;20050;-85
2023/05/26 04:38:15;;;;;;;10.80;6.13;;;11.00;99.90;;;;;;5038442;28;20083;-86
2023/05/26 04:40:42;;;;;;;8.65;4.95;;;11.00;99.90;;;;;;5042468;28;20032;-85
2023/05/26 04:43:10;;;;;;;8.55;5.53;;;11.10;99.90;;;;;;5038047;28;20025;-85
2023/05/26 04:45:37;;;;;;;7.88;6.20;;;11.10;99.90;;;;;;5023572;28;20034;-86
2023/05/26 04:48:05;;;;;;;7.43;5.82;;;11.20;99.90;;;;;;5037094;28;20029;-85
2023/05/26 04:50:37;;;;;;;9.32;6.03;;;11.30;99.90;;;;;;5033385;28;20577;-85
2023/05/26 04:53:05;;;;;;;10.93;6.07;;;11.30;99.90;;;;;;5038812;28;20226;-86
2023/05/26 04:55:30;;;;;;;10.88;5.63;;;11.40;99.90;;;;;;5037061;28;20936;-85
2023/05/26 04:57:56;;;;;;;10.57;6.13;;;11.30;99.90;;;;;;5030734;28;20038;-85
2023/05/26 05:00:22;;;;;;;11.52;5.88;;;11.30;99.90;;;;;;5042869;28;20494;-85
2023/05/26 05:02:47;;;;;;;10.60;5.97;;;11.50;99.90;;;;;;5035336;28;20038;-86
2023/05/26 05:05:13;;;;;;;9.50;5.82;;;11.40;99.90;;;;;;5038871;28;20064;-85
2023/05/26 05:07:39;;;;;;;10.25;5.78;;;11.60;99.90;;;;;;5030730;28;20046;-85
2023/05/26 05:10:05;;;;;;;9.75;5.47;;;11.70;99.90;;;;;;5038508;28;20022;-86
2023/05/26 05:12:31;;;;;;;10.23;6.00;;;12.00;99.90;;;;;;5039802;28;20025;-86
2023/05/26 05:14:56;;;;;;;8.30;5.93;;;12.20;99.90;;;;;;5045286;28;20405;-85
2023/05/26 05:17:22;;;;;;;9.75;5.95;;;12.40;99.90;;;;;;5036852;28;20068;-86
2023/05/26 05:19:48;;;;;;;11.50;6.05;;;12.50;99.90;;;;;;5034899;28;20025;-85
2023/05/26 05:22:13;;;;;;;7.20;5.63;;;12.60;99.90;;;;;;5033241;28;20056;-86
2023/05/26 05:24:40;;;;;;;12.98;6.45;;;12.70;99.90;;;;;;5034463;28;20037;-86
2023/05/26 05:27:05;;;;;;;10.85;5.88;;;12.70;99.90;;;;;;4999947;28;20057;-86
2023/05/26 05:29:31;;;;;;;10.52;6.03;;;12.70;99.90;;;;;;5036740;28;20088;-85
2023/05/26 05:31:56;;;;;;;12.13;5.65;;;12.70;99.90;;;;;;5034114;28;20053;-85
2023/05/26 05:34:22;;;;;;;9.95;5.53;;;12.80;99.90;;;;;;5033304;28;20112;-85
2023/05/26 05:36:48;;;;;;;12.60;5.68;;;12.90;99.90;;;;;;5036921;28;20030;-85
2023/05/26 05:39:13;;;;;;;8.65;5.75;;;12.90;99.90;;;;;;5036396;28;20075;-85
2023/05/26 05:41:39;;;;;;;12.73;5.53;;;13.00;99.90;;;;;;5035773;28;20043;-85
2023/05/26 05:44:04;;;;;;;14.38;6.80;;;13.10;99.90;;;;;;5023936;28;20025;-85
2023/05/26 05:46:30;;;;;;;9.75;5.57;;;13.20;99.90;;;;;;5037399;28;20037;-85
2023/05/26 05:48:55;;;;;;;11.15;6.43;;;13.30;99.90;;;;;;5038563;28;20029;-84
2023/05/26 05:51:21;;;;;;;9.73;5.70;;;13.40;99.90;;;;;;5038342;28;20029;-85
2023/05/26 05:53:47;;;;;;;10.80;6.00;;;13.40;99.90;;;;;;5033507;28;20028;-85
2023/05/26 05:56:12;;;;;;;11.80;6.38;;;13.60;99.90;;;;;;5036738;28;20089;-89
2023/05/26 05:58:38;;;;;;;11.48;6.18;;;13.60;99.90;;;;;;5037443;28;20088;-83
2023/05/26 06:01:04;;;;;;;11.95;6.15;;;13.60;99.90;;;;;;5035346;28;20046;-85
2023/05/26 06:03:29;;;;;;;11.00;6.50;;;13.70;99.90;;;;;;5036378;28;20009;-85
2023/05/26 06:05:55;;;;;;;12.85;7.03;;;13.90;99.90;;;;;;5038414;28;20049;-85
2023/05/26 06:08:20;;;;;;;11.05;6.63;;;13.90;99.90;;;;;;5022979;28;20057;-86
2023/05/26 06:10:46;;;;;;;14.25;6.82;;;13.90;99.90;;;;;;5038327;28;20506;-86
2023/05/26 06:13:11;;;;;;;12.20;6.30;;;14.10;99.90;;;;;;5034664;28;20033;-86
2023/05/26 06:15:37;;;;;;;15.85;5.95;;;14.10;99.90;;;;;;5041293;28;20069;-86
2023/05/26 06:18:03;;;;;;;11.25;5.78;;;14.20;99.90;;;;;;5044274;28;20029;-86
2023/05/26 06:20:28;;;;;;;10.55;6.00;;;14.30;99.90;;;;;;5042368;28;20059;-86
2023/05/26 06:22:54;;;;;;;9.38;6.07;;;14.40;99.90;;;;;;5034713;28;20046;-86
2023/05/26 06:25:20;;;;;;;12.95;5.85;;;14.50;99.90;;;;;;5041630;28;20045;-86
2023/05/26 06:27:45;;;;;;;9.93;6.03;;;14.60;99.90;;;;;;5041493;28;20042;-86
2023/05/26 06:30:11;;;;;;;9.65;6.07;;;14.80;99.90;;;;;;5040484;28;20097;-86
2023/05/26 06:32:37;;;;;;;9.88;6.03;;;14.90;99.90;;;;;;5042680;28;20030;-86
2023/05/26 06:35:02;;;;;;;7.13;5.68;;;14.90;99.90;;;;;;5038886;28;20037;-85
2023/05/26 06:37:28;;;;;;;10.82;5.78;;;15.00;99.90;;;;;;5043755;28;20044;-87
2023/05/26 06:39:55;;;;;;;9.68;5.57;;;15.10;99.90;;;;;;5042600;28;20052;-86
2023/05/26 06:42:20;;;;;;;10.57;5.63;;;15.30;99.90;;;;;;5037637;28;20048;-87
2023/05/26 06:44:46;;;;;;;7.45;5.63;;;15.40;99.90;;;;;;5046938;28;20101;-88
2023/05/26 06:47:11;;;;;;;9.85;5.80;;;15.50;99.90;;;;;;5039584;28;20057;-88
2023/05/26 06:49:37;;;;;;;9.07;5.05;;;15.60;99.90;;;;;;5041940;28;20036;-87
2023/05/26 06:52:03;;;;;;;10.88;6.07;;;15.60;99.90;;;;;;5041997;28;20049;-87
2023/05/26 06:54:29;;;;;;;9.35;5.95;;;15.80;99.90;;;;;;5042356;28;20013;-86
2023/05/26 06:56:54;;;;;;;11.02;5.50;;;15.70;99.90;;;;;;5043470;28;20029;-87
2023/05/26 06:59:20;;;;;;;8.23;5.40;;;15.80;99.90;;;;;;5035882;28;20129;-87
2023/05/26 07:01:45;;;;;;;8.02;5.60;;;15.80;99.90;;;;;;5039454;28;20083;-87
2023/05/26 07:04:11;;;;;;;10.75;6.20;;;16.00;99.90;;;;;;5038940;28;20091;-86
2023/05/26 07:06:36;;;;;;;9.15;6.10;;;16.20;99.90;;;;;;5038591;28;20606;-87
2023/05/26 07:09:02;;;;;;;10.88;6.18;;;16.30;99.90;;;;;;5037597;28;20461;-87
2023/05/26 07:11:28;;;;;;;9.57;5.30;;;16.30;99.90;;;;;;5042791;28;20136;-86
2023/05/26 07:13:53;;;;;;;9.38;5.65;;;16.30;99.90;;;;;;5033774;28;20089;-86
2023/05/26 07:16:19;;;;;;;11.05;5.75;;;16.60;99.90;;;;;;5035961;28;20041;-83
2023/05/26 07:18:45;;;;;;;8.63;5.82;;;16.70;99.90;;;;;;5036700;28;20033;-82
2023/05/26 07:21:11;;;;;;;10.40;5.97;;;16.60;99.90;;;;;;5039051;28;20034;-82
2023/05/26 07:23:36;;;;;;;12.13;5.45;;;16.80;99.90;;;;;;5046590;28;20041;-83
2023/05/26 07:26:02;;;;;;;9.50;5.72;;;17.00;99.90;;;;;;5035929;28;20065;-83
2023/05/26 07:28:27;;;;;;;9.25;6.38;;;17.00;99.90;;;;;;5040721;28;20038;-83
2023/05/26 07:30:53;;;;;;;11.25;6.47;;;17.30;99.90;;;;;;5036492;28;20649;-83
2023/05/26 07:33:19;;;;;;;9.18;6.30;;;17.30;99.90;;;;;;5037500;28;20033;-83
2023/05/26 07:35:45;;;;;;;11.77;6.70;;;17.30;99.90;;;;;;5037337;28;20031;-88
2023/05/26 07:38:10;;;;;;;10.07;6.10;;;17.30;99.90;;;;;;5041449;28;20466;-86
2023/05/26 07:40:36;;;;;;;9.90;6.57;;;17.50;99.90;;;;;;5037903;28;20064;-88
2023/05/26 07:43:02;;;;;;;9.35;5.47;;;17.60;99.90;;;;;;5038741;28;20021;-87
2023/05/26 07:45:28;;;;;;;15.07;6.50;;;17.60;99.90;;;;;;5041594;28;20033;-88
2023/05/26 07:47:54;;;;;;;10.05;6.82;;;17.70;99.90;;;;;;5038787;28;20049;-87
2023/05/26 07:50:19;;;;;;;14.88;5.97;;;17.70;99.90;;;;;;5037911;28;20499;-85
2023/05/26 07:52:45;;;;;;;10.65;6.22;;;17.80;99.90;;;;;;5036153;28;20037;-85
2023/05/26 07:55:11;;;;;;;7.65;6.10;;;17.80;99.90;;;;;;5048630;28;20078;-87
2023/05/26 07:57:36;;;;;;;13.00;6.40;;;17.90;99.90;;;;;;5039792;28;20124;-87
2023/05/26 08:00:03;;;;;;;10.27;6.30;;;18.10;99.90;;;;;;5042330;28;20131;-87
2023/05/26 08:02:29;;;;;;;11.95;6.22;;;18.20;99.90;;;;;;5041076;28;20041;-87
2023/05/26 08:04:55;;;;;;;11.75;6.43;;;18.20;99.90;;;;;;5043101;28;20040;-88
2023/05/26 08:07:20;;;;;;;10.05;6.57;;;18.30;99.90;;;;;;5033976;28;20536;-87
2023/05/26 08:09:46;;;;;;;13.38;5.97;;;18.30;99.90;;;;;;5039750;28;20115;-88
2023/05/26 08:12:12;;;;;;;11.07;6.65;;;18.50;99.90;;;;;;5039999;28;20040;-89
2023/05/26 08:14:38;;;;;;;10.32;6.50;;;18.70;99.90;;;;;;5041029;28;20707;-88
2023/05/26 08:17:03;;;;;;;14.07;6.88;;;18.90;99.90;;;;;;5039199;28;20056;-88
2023/05/26 08:19:29;;;;;;;10.57;7.00;;;18.70;99.90;;;;;;5035609;28;20053;-85
2023/05/26 08:21:55;;;;;;;12.30;6.07;;;18.70;99.90;;;;;;5036287;28;20053;-84
2023/05/26 08:24:22;;;;;;;12.02;6.43;;;18.80;99.90;;;;;;5038045;28;20103;-84
2023/05/26 08:26:49;;;;;;;10.48;6.00;;;19.00;99.90;;;;;;5037910;28;20087;-85
2023/05/26 08:29:14;;;;;;;135.95;29.80;;;19.00;99.90;;;;;;5043147;28;20036;-87
2023/05/26 08:31:40;;;;;;;17.38;8.20;;;19.50;99.90;;;;;;5023319;28;20047;-86
2023/05/26 08:34:06;;;;;;;13.85;7.47;;;19.40;99.90;;;;;;5053524;28;20014;-86
2023/05/26 08:36:32;;;;;;;9.90;6.30;;;19.30;99.90;;;;;;5040922;28;20121;-86
2023/05/26 08:38:58;;;;;;;11.02;6.05;;;19.20;99.90;;;;;;5040439;28;20025;-85
2023/05/26 08:41:28;;;;;;;10.73;7.18;;;19.40;99.90;;;;;;5035107;28;20143;-86
2023/05/26 08:43:59;;;;;;;8.77;5.82;;;19.40;99.90;;;;;;5040783;28;20056;-84
2023/05/26 08:46:26;;;;;;;9.48;6.97;;;19.70;99.90;;;;;;5033103;28;20405;-85
2023/05/26 08:48:53;;;;;;;11.38;7.50;;;20.40;99.90;;;;;;5043143;28;20021;-85
2023/05/26 08:51:19;;;;;;;13.07;7.60;;;20.00;99.90;;;;;;5038968;28;20041;-85
2023/05/26 08:53:47;;;;;;;10.63;6.63;;;19.70;99.90;;;;;;5036539;28;20094;-85
2023/05/26 08:56:12;;;;;;;9.95;6.38;;;19.70;99.90;;;;;;5037545;28;20052;-86
2023/05/26 08:58:39;;;;;;;11.80;6.95;;;19.90;99.90;;;;;;5041143;28;20036;-85
2023/05/26 09:01:05;;;;;;;11.52;6.70;;;20.00;99.90;;;;;;5035881;28;20036;-86
2023/05/26 09:03:31;;;;;;;11.23;6.63;;;19.70;99.90;;;;;;5038121;28;20033;-86
2023/05/26 09:05:57;;;;;;;11.50;7.43;;;19.60;99.90;;;;;;5039977;28;20099;-85
2023/05/26 09:08:23;;;;;;;11.38;7.45;;;19.90;99.90;;;;;;5035513;28;20105;-85
2023/05/26 09:10:49;;;;;;;12.93;7.47;;;19.90;99.90;;;;;;5039468;28;20021;-85
2023/05/26 09:13:17;;;;;;;13.85;7.35;;;19.90;99.90;;;;;;5039118;28;20036;-85
2023/05/26 09:15:48;;;;;;;15.73;7.50;;;19.90;99.90;;;;;;5037175;28;20022;-85
2023/05/26 09:18:14;;;;;;;15.32;7.63;;;19.80;99.90;;;;;;5040858;28;20042;-85
2023/05/26 09:20:45;;;;;;;15.50;7.55;;;19.90;99.90;;;;;;5038000;28;20366;-85
2023/05/26 09:23:11;;;;;;;12.90;7.78;;;20.10;99.90;;;;;;5036687;28;20033;-86
2023/05/26 09:25:42;;;;;;;10.82;7.13;;;20.10;99.90;;;;;;5037382;28;20112;-85
2023/05/26 09:28:13;;;;;;;14.43;8.45;;;20.10;99.90;;;;;;5038908;28;20053;-85
2023/05/26 09:30:43;;;;;;;14.75;7.82;;;20.30;99.90;;;;;;5038360;28;20046;-85
2023/05/26 09:33:10;;;;;;;13.15;8.02;;;20.30;99.90;;;;;;5040286;28;20036;-85
2023/05/26 09:35:38;;;;;;;15.13;8.27;;;20.30;99.90;;;;;;5046644;28;20033;-86
2023/05/26 09:38:09;;;;;;;14.23;8.13;;;20.10;99.90;;;;;;5041426;28;20037;-85
2023/05/26 09:40:39;;;;;;;16.30;8.32;;;20.40;99.90;;;;;;5041606;28;20033;-85
2023/05/26 09:43:05;;;;;;;14.05;7.78;;;20.50;99.90;;;;;;5044591;28;20022;-85
2023/05/26 09:45:37;;;;;;;14.95;8.65;;;20.60;99.90;;;;;;5042322;28;20044;-85
2023/05/26 09:48:06;;;;;;;13.30;7.70;;;20.60;99.90;;;;;;5040694;28;20517;-85
2023/05/26 09:50:34;;;;;;;13.25;7.97;;;20.50;99.90;;;;;;5023442;28;20022;-85
2023/05/26 09:53:02;;;;;;;10.98;7.18;;;20.70;99.90;;;;;;5043681;28;20029;-85
2023/05/26 09:55:31;;;;;;;15.00;7.63;;;21.20;99.90;;;;;;5042710;28;20040;-86
2023/05/26 09:58:08;;;;;;;12.52;7.72;;;21.10;99.90;;;;;;5042458;28;20025;-85
2023/05/26 10:00:35;;;;;;;14.77;7.32;;;21.00;99.90;;;;;;5043516;28;20036;-85
2023/05/26 10:03:03;;;;;;;12.10;7.15;;;21.00;99.90;;;;;;5045049;28;20056;-85
2023/05/26 10:05:33;;;;;;;10.68;7.20;;;20.90;99.90;;;;;;5039842;28;20053;-81
2023/05/26 10:08:00;;;;;;;13.02;7.32;;;21.10;99.90;;;;;;5040724;28;20120;-84
2023/05/26 10:10:28;;;;;;;12.43;6.72;;;21.30;99.90;;;;;;5048027;28;20041;-84
2023/05/26 10:12:54;;;;;;;9.27;6.95;;;21.60;99.90;;;;;;5045237;28;20041;-85
2023/05/26 10:15:21;;;;;;;10.27;7.38;;;21.60;99.90;;;;;;5043713;28;20375;-80
2023/05/26 10:17:47;;;;;;;13.73;6.57;;;21.60;99.90;;;;;;5042051;28;20029;-79
2023/05/26 10:20:13;;;;;;;15.68;6.93;;;21.80;99.90;;;;;;5042474;28;20041;-79
2023/05/26 10:22:58;;;;;;;14.27;7.45;;;21.90;99.90;;;;;;5040786;28;20469;-79
2023/05/26 10:25:58;;;;;;;11.57;7.38;;;21.90;99.90;;;;;;5036684;28;20040;-79
2023/05/26 10:28:51;;;;;;;9.45;5.82;;;21.60;99.90;;;;;;5038878;28;20054;-78
2023/05/26 10:31:30;;;;;;;12.88;7.05;;;21.70;99.90;;;;;;5041268;28;20070;-79
2023/05/26 10:33:56;;;;;;;10.20;7.18;;;21.80;99.90;;;;;;5043290;28;20033;-78
2023/05/26 10:36:23;;;;;;;11.20;6.40;;;21.60;99.90;;;;;;5040403;28;20022;-78
2023/05/26 10:38:53;;;;;;;11.38;6.90;;;21.90;99.90;;;;;;5037798;28;20037;-78
2023/05/26 10:41:31;;;;;;;11.73;6.47;;;21.80;99.90;;;;;;5037127;28;20246;-78
2023/05/26 10:43:57;;;;;;;8.80;6.20;;;22.10;99.90;;;;;;5037354;28;20159;-78
2023/05/26 10:46:39;;;;;;;9.18;6.22;;;22.20;99.90;;;;;;5042195;28;20072;-78
2023/05/26 10:49:20;;;;;;;12.18;6.22;;;22.30;99.90;;;;;;5040714;28;20033;-78
2023/05/26 10:51:51;;;;;;;9.00;5.95;;;21.80;99.90;;;;;;5041360;28;20029;-78
2023/05/26 10:54:24;;;;;;;8.25;5.57;;;21.40;99.90;;;;;;5038691;28;20044;-79
2023/05/26 10:56:51;;;;;;;8.18;5.35;;;21.80;99.90;;;;;;5044213;28;20041;-78
2023/05/26 10:59:30;;;;;;;9.53;5.87;;;22.10;99.90;;;;;;5035051;28;20030;-78
2023/05/26 11:02:02;;;;;;;11.48;6.25;;;22.30;99.90;;;;;;5039956;28;20037;-79
2023/05/26 11:04:40;;;;;;;8.70;6.10;;;22.30;99.90;;;;;;5024506;28;20564;-79
2023/05/26 11:07:32;;;;;;;10.32;6.53;;;22.30;99.90;;;;;;5037622;28;20056;-78
2023/05/26 11:10:07;;;;;;;10.15;5.57;;;22.30;99.90;;;;;;5034882;28;20406;-79
2023/05/26 11:12:54;;;;;;;9.88;6.07;;;22.40;99.90;;;;;;5041083;28;20044;-78
2023/05/26 11:15:30;;;;;;;7.80;5.82;;;22.50;99.90;;;;;;5038268;28;20041;-79
2023/05/26 11:17:57;;;;;;;10.00;6.15;;;22.70;99.90;;;;;;5041195;28;20017;-79
2023/05/26 11:20:23;;;;;;;8.40;5.78;;;22.20;99.90;;;;;;5045836;28;20021;-79
2023/05/26 11:22:51;;;;;;;7.50;6.63;;;22.20;99.90;;;;;;5024315;28;20060;-79
2023/05/26 11:25:17;;;;;;;10.02;5.82;;;22.20;99.90;;;;;;5041490;28;20099;-80
2023/05/26 11:27:47;;;;;;;6.80;4.95;;;22.50;99.90;;;;;;5021010;28;20014;-80
2023/05/26 11:30:13;;;;;;;8.15;5.25;;;22.70;99.90;;;;;;5040007;28;20516;-81
2023/05/26 11:32:49;;;;;;;8.85;5.47;;;22.90;99.90;;;;;;5040356;28;20046;-80
2023/05/26 11:35:28;;;;;;;6.55;4.90;;;23.00;99.90;;;;;;5042048;28;20082;-81
2023/05/26 11:37:55;;;;;;;11.07;5.95;;;22.80;99.90;;;;;;5044809;28;20068;-81
2023/05/26 11:40:21;;;;;;;7.65;5.82;;;22.80;99.90;;;;;;5043134;28;20033;-80
2023/05/26 11:42:54;;;;;;;11.68;6.00;;;22.60;99.90;;;;;;5037137;28;20033;-80
2023/05/26 11:45:21;;;;;;;9.13;5.70;;;21.90;99.90;;;;;;5036901;28;20033;-80
2023/05/26 11:47:50;;;;;;;8.68;6.00;;;21.50;99.90;;;;;;5042605;28;20059;-80
2023/05/26 11:50:17;;;;;;;10.63;5.90;;;21.30;99.90;;;;;;5042180;28;20040;-80
2023/05/26 11:52:50;;;;;;;10.18;6.38;;;21.30;99.90;;;;;;5039855;28;20030;-80
2023/05/26 11:55:18;;;;;;;11.23;6.65;;;21.40;99.90;;;;;;5033463;28;20481;-80
2023/05/26 11:57:45;;;;;;;10.13;5.43;;;21.80;99.90;;;;;;5034318;28;20050;-80
2023/05/26 12:00:17;;;;;;;8.23;5.60;;;22.70;99.90;;;;;;5043393;28;20084;-80
2023/05/26 12:02:44;;;;;;;8.50;5.85;;;23.10;99.90;;;;;;5036127;28;20063;-82
2023/05/26 12:05:22;;;;;;;8.77;5.22;;;23.20;99.90;;;;;;5039477;28;20490;-79
2023/05/26 12:08:09;;;;;;;8.43;5.22;;;23.20;99.90;;;;;;5035320;28;20124;-80
2023/05/26 12:10:36;;;;;;;6.07;4.88;;;23.30;99.90;;;;;;5041354;28;20071;-80
2023/05/26 12:13:02;;;;;;;9.43;6.05;;;23.30;99.90;;;;;;5040673;28;20034;-80
2023/05/26 12:15:27;;;;;;;7.40;4.85;;;23.50;99.90;;;;;;5039499;28;20026;-80
2023/05/26 12:17:55;;;;;;;7.43;5.03;;;23.60;99.90;;;;;;5038443;28;20143;-80
2023/05/26 12:20:22;;;;;;;;;;;23.70;99.90;;;;;;5019189;28;20837;-85
2023/05/26 12:23:02;;;;;;;5.45;4.07;;;23.90;99.90;;;;;;5043470;28;19909;-85
2023/05/26 12:25:31;;;;;;;7.40;5.00;;;23.80;99.90;;;;;;5040139;28;20069;-83
2023/05/26 12:27:57;;;;;;;7.93;5.30;;;24.10;99.90;;;;;;5036416;28;20866;-83
2023/05/26 12:30:26;;;;;;;7.45;5.10;;;24.10;99.90;;;;;;5044734;28;20048;-84
2023/05/26 12:32:52;;;;;;;10.10;4.50;;;23.70;99.90;;;;;;5040418;28;20103;-86
2023/05/26 12:35:18;;;;;;;7.40;5.13;;;23.90;99.90;;;;;;5041736;28;20079;-84
2023/05/26 12:37:44;;;;;;;7.28;5.30;;;23.70;99.90;;;;;;5040454;28;20032;-83
2023/05/26 12:40:10;;;;;;;9.95;5.63;;;22.90;99.90;;;;;;5043893;28;20021;-83
2023/05/26 12:42:37;;;;;;;8.63;5.07;;;22.50;99.90;;;;;;5042780;28;20120;-83
2023/05/26 12:45:04;;;;;;;7.93;4.75;;;22.40;99.90;;;;;;5042046;28;20053;-82